Terminal Aerodrome Forecast
Issued by NWS

Home | Current Version | Previous Version | Text Only | Print | Product List | Glossary On
Versions: 1 2 3 4 5 6 7 8 9 10 11 12
774
FTUS44 KJAN 260520
TAFGTR
TAF
KGTR 260520Z 2606/2706 VRB03KT P6SM BKN100
     FM261500 36007KT P6SM SCT060
     FM261900 34012KT P6SM VCTS BKN050CB
     FM270000 01008KT 6SM HZ OVC250=

USA.gov is the U.S. government's official web portal to all federal, state and local government web resources and services.